sensor_id;sensor_type;location;lat;lon;timestamp;P1;durP1;ratioP1;P2;durP2;ratioP2
71777;SDS011;59609;52.430;4.668;2023-08-21T00:00:04;2.85;;;1.80;;
71777;SDS011;59609;52.430;4.668;2023-08-21T00:02:30;5.47;;;2.50;;
71777;SDS011;59609;52.430;4.668;2023-08-21T00:04:55;3.53;;;2.13;;
71777;SDS011;59609;52.430;4.668;2023-08-21T00:07:21;4.60;;;2.83;;
71777;SDS011;59609;52.430;4.668;2023-08-21T00:09:46;5.55;;;2.30;;
71777;SDS011;59609;52.430;4.668;2023-08-21T00:12:11;5.45;;;2.10;;
71777;SDS011;59609;52.430;4.668;2023-08-21T00:14:37;6.07;;;1.92;;
71777;SDS011;59609;52.430;4.668;2023-08-21T00:17:02;4.50;;;2.15;;
71777;SDS011;59609;52.430;4.668;2023-08-21T00:19:28;8.35;;;2.28;;
71777;SDS011;59609;52.430;4.668;2023-08-21T00:21:54;6.50;;;1.95;;
71777;SDS011;59609;52.430;4.668;2023-08-21T00:24:19;3.78;;;2.05;;
71777;SDS011;59609;52.430;4.668;2023-08-21T00:26:45;5.88;;;2.38;;
71777;SDS011;59609;52.430;4.668;2023-08-21T00:29:10;5.38;;;2.38;;
71777;SDS011;59609;52.430;4.668;2023-08-21T00:31:35;5.25;;;3.25;;
71777;SDS011;59609;52.430;4.668;2023-08-21T00:34:01;6.20;;;2.10;;
71777;SDS011;59609;52.430;4.668;2023-08-21T00:36:26;3.80;;;2.10;;
71777;SDS011;59609;52.430;4.668;2023-08-21T00:38:52;5.50;;;1.80;;
71777;SDS011;59609;52.430;4.668;2023-08-21T00:41:17;4.85;;;2.00;;
71777;SDS011;59609;52.430;4.668;2023-08-21T00:43:42;5.75;;;2.63;;
71777;SDS011;59609;52.430;4.668;2023-08-21T00:46:08;5.88;;;3.03;;
71777;SDS011;59609;52.430;4.668;2023-08-21T00:48:33;4.45;;;1.98;;
71777;SDS011;59609;52.430;4.668;2023-08-21T00:50:59;5.28;;;2.10;;
71777;SDS011;59609;52.430;4.668;2023-08-21T00:53:24;8.40;;;2.35;;
71777;SDS011;59609;52.430;4.668;2023-08-21T00:55:50;5.43;;;1.98;;
71777;SDS011;59609;52.430;4.668;2023-08-21T00:58:16;6.28;;;2.10;;
71777;SDS011;59609;52.430;4.668;2023-08-21T01:00:44;5.35;;;2.55;;
71777;SDS011;59609;52.430;4.668;2023-08-21T01:03:12;5.82;;;2.38;;
71777;SDS011;59609;52.430;4.668;2023-08-21T01:05:38;5.28;;;2.13;;
71777;SDS011;59609;52.430;4.668;2023-08-21T01:08:05;5.43;;;1.98;;
71777;SDS011;59609;52.430;4.668;2023-08-21T01:13:06;6.47;;;2.20;;
71777;SDS011;59609;52.430;4.668;2023-08-21T01:15:40;6.72;;;2.20;;
71777;SDS011;59609;52.430;4.668;2023-08-21T01:18:08;8.20;;;2.50;;
71777;SDS011;59609;52.430;4.668;2023-08-21T01:20:34;5.38;;;2.10;;
71777;SDS011;59609;52.430;4.668;2023-08-21T01:23:03;5.75;;;2.47;;
71777;SDS011;59609;52.430;4.668;2023-08-21T01:25:30;7.78;;;2.22;;
71777;SDS011;59609;52.430;4.668;2023-08-21T01:27:55;5.95;;;2.40;;
71777;SDS011;59609;52.430;4.668;2023-08-21T01:30:21;4.13;;;1.70;;
71777;SDS011;59609;52.430;4.668;2023-08-21T01:35:27;2.90;;;2.05;;
71777;SDS011;59609;52.430;4.668;2023-08-21T01:37:55;3.85;;;1.83;;
71777;SDS011;59609;52.430;4.668;2023-08-21T01:40:21;4.97;;;1.77;;
71777;SDS011;59609;52.430;4.668;2023-08-21T01:42:47;5.50;;;2.33;;
71777;SDS011;59609;52.430;4.668;2023-08-21T01:45:12;3.55;;;1.73;;
71777;SDS011;59609;52.430;4.668;2023-08-21T01:47:38;4.25;;;1.80;;
71777;SDS011;59609;52.430;4.668;2023-08-21T01:50:03;4.65;;;1.75;;
71777;SDS011;59609;52.430;4.668;2023-08-21T01:52:29;3.70;;;1.67;;
71777;SDS011;59609;52.430;4.668;2023-08-21T01:54:54;4.10;;;2.20;;
71777;SDS011;59609;52.430;4.668;2023-08-21T01:57:20;3.67;;;1.77;;
71777;SDS011;59609;52.430;4.668;2023-08-21T01:59:45;4.53;;;1.70;;
71777;SDS011;59609;52.430;4.668;2023-08-21T02:02:10;2.75;;;1.60;;
71777;SDS011;59609;52.430;4.668;2023-08-21T02:04:36;4.55;;;1.55;;
71777;SDS011;59609;52.430;4.668;2023-08-21T02:07:01;3.22;;;1.58;;
71777;SDS011;59609;52.430;4.668;2023-08-21T02:09:27;4.45;;;1.67;;
71777;SDS011;59609;52.430;4.668;2023-08-21T02:11:52;4.35;;;1.65;;
71777;SDS011;59609;52.430;4.668;2023-08-21T02:14:17;4.30;;;1.88;;
71777;SDS011;59609;52.430;4.668;2023-08-21T02:16:43;3.38;;;1.55;;
71777;SDS011;59609;52.430;4.668;2023-08-21T02:19:08;4.03;;;1.95;;
71777;SDS011;59609;52.430;4.668;2023-08-21T02:21:33;3.00;;;1.63;;
71777;SDS011;59609;52.430;4.668;2023-08-21T02:23:59;4.10;;;1.95;;
71777;SDS011;59609;52.430;4.668;2023-08-21T02:26:24;2.63;;;1.45;;
71777;SDS011;59609;52.430;4.668;2023-08-21T02:28:50;2.83;;;1.52;;
71777;SDS011;59609;52.430;4.668;2023-08-21T02:31:15;2.92;;;1.60;;
71777;SDS011;59609;52.430;4.668;2023-08-21T02:33:40;3.97;;;1.48;;
71777;SDS011;59609;52.430;4.668;2023-08-21T02:36:06;4.88;;;1.70;;
71777;SDS011;59609;52.430;4.668;2023-08-21T02:38:32;2.13;;;1.50;;
71777;SDS011;59609;52.430;4.668;2023-08-21T02:40:57;3.58;;;1.35;;
71777;SDS011;59609;52.430;4.668;2023-08-21T02:43:23;2.55;;;1.63;;
71777;SDS011;59609;52.430;4.668;2023-08-21T02:45:48;7.25;;;2.28;;
71777;SDS011;59609;52.430;4.668;2023-08-21T02:48:14;4.03;;;1.33;;
71777;SDS011;59609;52.430;4.668;2023-08-21T02:50:39;5.68;;;1.50;;
71777;SDS011;59609;52.430;4.668;2023-08-21T02:53:06;5.40;;;1.80;;
71777;SDS011;59609;52.430;4.668;2023-08-21T02:55:32;5.70;;;1.50;;
71777;SDS011;59609;52.430;4.668;2023-08-21T02:57:57;2.42;;;1.33;;
71777;SDS011;59609;52.430;4.668;2023-08-21T03:00:22;4.90;;;2.30;;
71777;SDS011;59609;52.430;4.668;2023-08-21T03:02:48;2.75;;;1.42;;
71777;SDS011;59609;52.430;4.668;2023-08-21T03:05:13;5.45;;;2.10;;
71777;SDS011;59609;52.430;4.668;2023-08-21T03:07:39;3.92;;;1.30;;
71777;SDS011;59609;52.430;4.668;2023-08-21T03:10:05;4.97;;;1.63;;
71777;SDS011;59609;52.430;4.668;2023-08-21T03:12:31;2.78;;;1.67;;
71777;SDS011;59609;52.430;4.668;2023-08-21T03:14:57;4.57;;;1.77;;
71777;SDS011;59609;52.430;4.668;2023-08-21T03:17:23;5.40;;;2.33;;
71777;SDS011;59609;52.430;4.668;2023-08-21T03:19:48;6.88;;;1.60;;
71777;SDS011;59609;52.430;4.668;2023-08-21T03:22:14;4.85;;;1.60;;
71777;SDS011;59609;52.430;4.668;2023-08-21T03:24:39;5.35;;;1.42;;
71777;SDS011;59609;52.430;4.668;2023-08-21T03:27:05;5.07;;;2.13;;
71777;SDS011;59609;52.430;4.668;2023-08-21T03:29:30;3.88;;;1.40;;
71777;SDS011;59609;52.430;4.668;2023-08-21T03:31:55;3.80;;;3.13;;
71777;SDS011;59609;52.430;4.668;2023-08-21T03:34:21;2.40;;;1.50;;
71777;SDS011;59609;52.430;4.668;2023-08-21T03:36:47;4.75;;;1.80;;
71777;SDS011;59609;52.430;4.668;2023-08-21T03:39:12;3.35;;;1.60;;
71777;SDS011;59609;52.430;4.668;2023-08-21T03:41:37;5.82;;;1.63;;
71777;SDS011;59609;52.430;4.668;2023-08-21T03:44:03;4.93;;;2.45;;
71777;SDS011;59609;52.430;4.668;2023-08-21T03:46:28;4.22;;;2.15;;
71777;SDS011;59609;52.430;4.668;2023-08-21T03:48:54;2.90;;;2.35;;
71777;SDS011;59609;52.430;4.668;2023-08-21T03:51:19;4.78;;;1.80;;
71777;SDS011;59609;52.430;4.668;2023-08-21T03:53:45;4.90;;;2.40;;
71777;SDS011;59609;52.430;4.668;2023-08-21T03:56:10;5.75;;;1.65;;
71777;SDS011;59609;52.430;4.668;2023-08-21T03:58:36;4.03;;;1.65;;
71777;SDS011;59609;52.430;4.668;2023-08-21T04:01:01;5.13;;;1.98;;
71777;SDS011;59609;52.430;4.668;2023-08-21T04:03:27;3.08;;;1.80;;
71777;SDS011;59609;52.430;4.668;2023-08-21T04:05:55;2.72;;;1.70;;
71777;SDS011;59609;52.430;4.668;2023-08-21T04:08:24;4.80;;;2.05;;
71777;SDS011;59609;52.430;4.668;2023-08-21T04:10:49;4.95;;;2.17;;
71777;SDS011;59609;52.430;4.668;2023-08-21T04:13:17;4.15;;;2.03;;
71777;SDS011;59609;52.430;4.668;2023-08-21T04:15:46;4.28;;;2.20;;
71777;SDS011;59609;52.430;4.668;2023-08-21T04:18:11;3.90;;;1.85;;
71777;SDS011;59609;52.430;4.668;2023-08-21T04:20:37;6.10;;;2.00;;
71777;SDS011;59609;52.430;4.668;2023-08-21T04:23:02;5.63;;;2.25;;
71777;SDS011;59609;52.430;4.668;2023-08-21T04:25:28;4.80;;;2.10;;
71777;SDS011;59609;52.430;4.668;2023-08-21T04:27:53;3.00;;;1.90;;
71777;SDS011;59609;52.430;4.668;2023-08-21T04:30:19;4.85;;;1.75;;
71777;SDS011;59609;52.430;4.668;2023-08-21T04:32:44;5.32;;;1.85;;
71777;SDS011;59609;52.430;4.668;2023-08-21T04:35:09;7.18;;;2.25;;
71777;SDS011;59609;52.430;4.668;2023-08-21T04:40:03;4.22;;;2.35;;
71777;SDS011;59609;52.430;4.668;2023-08-21T04:42:28;2.42;;;1.98;;
71777;SDS011;59609;52.430;4.668;2023-08-21T04:44:54;5.63;;;2.65;;
71777;SDS011;59609;52.430;4.668;2023-08-21T04:47:23;5.97;;;2.30;;
71777;SDS011;59609;52.430;4.668;2023-08-21T04:49:52;5.38;;;2.50;;
71777;SDS011;59609;52.430;4.668;2023-08-21T04:52:19;5.65;;;2.50;;
71777;SDS011;59609;52.430;4.668;2023-08-21T04:54:45;3.75;;;2.30;;
71777;SDS011;59609;52.430;4.668;2023-08-21T04:57:12;5.10;;;2.28;;
71777;SDS011;59609;52.430;4.668;2023-08-21T04:59:37;7.38;;;2.13;;
71777;SDS011;59609;52.430;4.668;2023-08-21T05:02:03;10.65;;;2.53;;
71777;SDS011;59609;52.430;4.668;2023-08-21T05:04:29;5.72;;;3.17;;
71777;SDS011;59609;52.430;4.668;2023-08-21T05:06:54;6.82;;;2.50;;
71777;SDS011;59609;52.430;4.668;2023-08-21T05:09:19;5.75;;;2.80;;
71777;SDS011;59609;52.430;4.668;2023-08-21T05:11:45;6.65;;;3.33;;
71777;SDS011;59609;52.430;4.668;2023-08-21T05:14:10;9.70;;;3.08;;
71777;SDS011;59609;52.430;4.668;2023-08-21T05:16:36;6.47;;;3.20;;
71777;SDS011;59609;52.430;4.668;2023-08-21T05:19:01;8.88;;;3.97;;
71777;SDS011;59609;52.430;4.668;2023-08-21T05:21:27;6.30;;;3.10;;
71777;SDS011;59609;52.430;4.668;2023-08-21T05:23:52;9.18;;;3.15;;
71777;SDS011;59609;52.430;4.668;2023-08-21T05:26:18;7.05;;;3.80;;
71777;SDS011;59609;52.430;4.668;2023-08-21T05:28:44;6.25;;;3.33;;
71777;SDS011;59609;52.430;4.668;2023-08-21T05:31:10;7.45;;;4.35;;
71777;SDS011;59609;52.430;4.668;2023-08-21T05:33:35;7.75;;;3.92;;
71777;SDS011;59609;52.430;4.668;2023-08-21T05:36:01;5.82;;;3.58;;
71777;SDS011;59609;52.430;4.668;2023-08-21T05:38:26;8.23;;;3.63;;
71777;SDS011;59609;52.430;4.668;2023-08-21T05:40:51;7.47;;;3.95;;
71777;SDS011;59609;52.430;4.668;2023-08-21T05:43:17;8.27;;;3.50;;
71777;SDS011;59609;52.430;4.668;2023-08-21T05:45:42;8.55;;;3.88;;
71777;SDS011;59609;52.430;4.668;2023-08-21T05:48:08;8.40;;;3.60;;
71777;SDS011;59609;52.430;4.668;2023-08-21T05:50:33;10.68;;;2.90;;
71777;SDS011;59609;52.430;4.668;2023-08-21T05:53:01;5.68;;;2.65;;
71777;SDS011;59609;52.430;4.668;2023-08-21T05:55:28;6.85;;;2.60;;
71777;SDS011;59609;52.430;4.668;2023-08-21T05:57:53;7.32;;;2.88;;
71777;SDS011;59609;52.430;4.668;2023-08-21T06:00:19;6.28;;;4.13;;
71777;SDS011;59609;52.430;4.668;2023-08-21T06:02:44;5.50;;;2.45;;
71777;SDS011;59609;52.430;4.668;2023-08-21T06:05:10;6.75;;;3.70;;
71777;SDS011;59609;52.430;4.668;2023-08-21T06:07:35;6.95;;;2.38;;
71777;SDS011;59609;52.430;4.668;2023-08-21T06:10:00;8.23;;;2.67;;
71777;SDS011;59609;52.430;4.668;2023-08-21T06:12:26;3.80;;;2.55;;
71777;SDS011;59609;52.430;4.668;2023-08-21T06:14:51;4.47;;;2.20;;
71777;SDS011;59609;52.430;4.668;2023-08-21T06:17:17;7.40;;;2.20;;
71777;SDS011;59609;52.430;4.668;2023-08-21T06:19:42;5.70;;;2.70;;
71777;SDS011;59609;52.430;4.668;2023-08-21T06:22:08;8.13;;;2.70;;
71777;SDS011;59609;52.430;4.668;2023-08-21T06:24:33;9.63;;;2.70;;
71777;SDS011;59609;52.430;4.668;2023-08-21T06:26:58;5.22;;;2.70;;
71777;SDS011;59609;52.430;4.668;2023-08-21T06:29:24;6.05;;;2.72;;
71777;SDS011;59609;52.430;4.668;2023-08-21T06:31:49;4.85;;;2.20;;
71777;SDS011;59609;52.430;4.668;2023-08-21T06:34:15;9.77;;;3.83;;
71777;SDS011;59609;52.430;4.668;2023-08-21T06:36:40;8.02;;;2.65;;
71777;SDS011;59609;52.430;4.668;2023-08-21T06:39:06;9.05;;;4.15;;
71777;SDS011;59609;52.430;4.668;2023-08-21T06:41:31;6.63;;;2.65;;
71777;SDS011;59609;52.430;4.668;2023-08-21T06:43:57;5.72;;;2.60;;
71777;SDS011;59609;52.430;4.668;2023-08-21T06:46:22;4.03;;;2.65;;
71777;SDS011;59609;52.430;4.668;2023-08-21T06:48:48;7.70;;;2.60;;
71777;SDS011;59609;52.430;4.668;2023-08-21T06:51:15;5.10;;;2.85;;
71777;SDS011;59609;52.430;4.668;2023-08-21T06:53:41;6.38;;;2.97;;
71777;SDS011;59609;52.430;4.668;2023-08-21T06:56:06;7.68;;;2.08;;
71777;SDS011;59609;52.430;4.668;2023-08-21T06:58:32;6.80;;;1.83;;
71777;SDS011;59609;52.430;4.668;2023-08-21T07:00:59;8.13;;;1.83;;
71777;SDS011;59609;52.430;4.668;2023-08-21T07:03:25;5.40;;;2.10;;
71777;SDS011;59609;52.430;4.668;2023-08-21T07:05:54;7.63;;;2.10;;
71777;SDS011;59609;52.430;4.668;2023-08-21T07:08:21;6.13;;;2.00;;
71777;SDS011;59609;52.430;4.668;2023-08-21T07:10:47;6.07;;;2.30;;
71777;SDS011;59609;52.430;4.668;2023-08-21T07:13:12;9.25;;;2.10;;
71777;SDS011;59609;52.430;4.668;2023-08-21T07:15:38;3.92;;;1.60;;
71777;SDS011;59609;52.430;4.668;2023-08-21T07:18:03;7.30;;;2.03;;
71777;SDS011;59609;52.430;4.668;2023-08-21T07:20:29;5.10;;;2.10;;
71777;SDS011;59609;52.430;4.668;2023-08-21T07:22:54;5.90;;;1.98;;
71777;SDS011;59609;52.430;4.668;2023-08-21T07:25:20;6.45;;;2.55;;
71777;SDS011;59609;52.430;4.668;2023-08-21T07:27:45;8.18;;;2.45;;
71777;SDS011;59609;52.430;4.668;2023-08-21T07:30:10;7.03;;;2.35;;
71777;SDS011;59609;52.430;4.668;2023-08-21T07:32:36;8.30;;;1.98;;
71777;SDS011;59609;52.430;4.668;2023-08-21T07:35:01;3.95;;;1.75;;
71777;SDS011;59609;52.430;4.668;2023-08-21T07:37:27;5.45;;;1.70;;
71777;SDS011;59609;52.430;4.668;2023-08-21T07:39:53;9.82;;;2.08;;
71777;SDS011;59609;52.430;4.668;2023-08-21T07:42:18;8.82;;;2.05;;
71777;SDS011;59609;52.430;4.668;2023-08-21T07:44:44;7.13;;;2.00;;
71777;SDS011;59609;52.430;4.668;2023-08-21T07:47:10;7.82;;;1.90;;
71777;SDS011;59609;52.430;4.668;2023-08-21T07:49:36;6.68;;;1.85;;
71777;SDS011;59609;52.430;4.668;2023-08-21T07:52:02;4.80;;;1.70;;
71777;SDS011;59609;52.430;4.668;2023-08-21T07:54:28;5.93;;;1.63;;
71777;SDS011;59609;52.430;4.668;2023-08-21T07:56:54;5.47;;;1.73;;
71777;SDS011;59609;52.430;4.668;2023-08-21T07:59:19;3.97;;;1.42;;
71777;SDS011;59609;52.430;4.668;2023-08-21T08:01:45;5.47;;;1.75;;
71777;SDS011;59609;52.430;4.668;2023-08-21T08:04:10;8.70;;;2.28;;
71777;SDS011;59609;52.430;4.668;2023-08-21T08:06:36;3.78;;;1.80;;
71777;SDS011;59609;52.430;4.668;2023-08-21T08:09:01;6.35;;;2.08;;
71777;SDS011;59609;52.430;4.668;2023-08-21T08:11:28;7.03;;;1.70;;
71777;SDS011;59609;52.430;4.668;2023-08-21T08:13:54;11.20;;;2.17;;
71777;SDS011;59609;52.430;4.668;2023-08-21T08:16:20;5.18;;;1.73;;
71777;SDS011;59609;52.430;4.668;2023-08-21T08:18:45;6.97;;;1.50;;
71777;SDS011;59609;52.430;4.668;2023-08-21T08:21:11;5.90;;;1.95;;
71777;SDS011;59609;52.430;4.668;2023-08-21T08:23:36;8.25;;;1.70;;
71777;SDS011;59609;52.430;4.668;2023-08-21T08:26:02;6.32;;;1.75;;
71777;SDS011;59609;52.430;4.668;2023-08-21T08:28:27;5.97;;;2.08;;
71777;SDS011;59609;52.430;4.668;2023-08-21T08:30:53;5.75;;;1.83;;
71777;SDS011;59609;52.430;4.668;2023-08-21T08:33:19;5.68;;;1.60;;
71777;SDS011;59609;52.430;4.668;2023-08-21T08:35:45;5.82;;;1.58;;
71777;SDS011;59609;52.430;4.668;2023-08-21T08:38:11;6.75;;;2.17;;
71777;SDS011;59609;52.430;4.668;2023-08-21T08:40:37;7.55;;;1.60;;
71777;SDS011;59609;52.430;4.668;2023-08-21T08:43:08;6.10;;;1.70;;
71777;SDS011;59609;52.430;4.668;2023-08-21T08:45:34;6.22;;;1.75;;
71777;SDS011;59609;52.430;4.668;2023-08-21T08:48:00;4.80;;;1.33;;
71777;SDS011;59609;52.430;4.668;2023-08-21T08:50:30;6.85;;;1.65;;
71777;SDS011;59609;52.430;4.668;2023-08-21T08:52:56;3.50;;;1.70;;
71777;SDS011;59609;52.430;4.668;2023-08-21T08:55:23;6.35;;;1.65;;
71777;SDS011;59609;52.430;4.668;2023-08-21T08:57:49;3.70;;;1.30;;
71777;SDS011;59609;52.430;4.668;2023-08-21T09:00:14;3.70;;;1.20;;
71777;SDS011;59609;52.430;4.668;2023-08-21T09:02:40;4.45;;;1.52;;
71777;SDS011;59609;52.430;4.668;2023-08-21T09:05:06;5.13;;;2.13;;
71777;SDS011;59609;52.430;4.668;2023-08-21T09:07:33;5.60;;;1.85;;
71777;SDS011;59609;52.430;4.668;2023-08-21T09:09:59;6.32;;;1.50;;
71777;SDS011;59609;52.430;4.668;2023-08-21T09:12:25;4.85;;;1.45;;
71777;SDS011;59609;52.430;4.668;2023-08-21T09:14:51;6.38;;;1.38;;
71777;SDS011;59609;52.430;4.668;2023-08-21T09:17:16;3.67;;;1.27;;
71777;SDS011;59609;52.430;4.668;2023-08-21T09:19:42;6.78;;;2.40;;
71777;SDS011;59609;52.430;4.668;2023-08-21T09:22:12;4.90;;;1.50;;
71777;SDS011;59609;52.430;4.668;2023-08-21T09:24:40;9.32;;;1.83;;
71777;SDS011;59609;52.430;4.668;2023-08-21T09:27:12;6.72;;;1.70;;
71777;SDS011;59609;52.430;4.668;2023-08-21T09:29:41;7.75;;;1.73;;
71777;SDS011;59609;52.430;4.668;2023-08-21T09:32:06;6.53;;;2.35;;
71777;SDS011;59609;52.430;4.668;2023-08-21T09:34:35;5.25;;;1.45;;
71777;SDS011;59609;52.430;4.668;2023-08-21T09:37:04;4.47;;;2.03;;
71777;SDS011;59609;52.430;4.668;2023-08-21T09:39:34;3.63;;;1.40;;
71777;SDS011;59609;52.430;4.668;2023-08-21T09:42:04;3.40;;;1.52;;
71777;SDS011;59609;52.430;4.668;2023-08-21T09:44:37;3.42;;;1.48;;
71777;SDS011;59609;52.430;4.668;2023-08-21T09:47:02;4.82;;;2.03;;
71777;SDS011;59609;52.430;4.668;2023-08-21T09:49:29;4.47;;;1.27;;
71777;SDS011;59609;52.430;4.668;2023-08-21T09:51:55;4.68;;;1.63;;
71777;SDS011;59609;52.430;4.668;2023-08-21T09:54:22;3.35;;;1.40;;
71777;SDS011;59609;52.430;4.668;2023-08-21T09:56:47;4.90;;;1.40;;
71777;SDS011;59609;52.430;4.668;2023-08-21T09:59:14;3.90;;;1.15;;
71777;SDS011;59609;52.430;4.668;2023-08-21T10:01:39;3.63;;;1.42;;
71777;SDS011;59609;52.430;4.668;2023-08-21T10:04:06;5.22;;;2.05;;
71777;SDS011;59609;52.430;4.668;2023-08-21T10:06:33;2.92;;;1.58;;
71777;SDS011;59609;52.430;4.668;2023-08-21T10:08:59;3.13;;;1.40;;
71777;SDS011;59609;52.430;4.668;2023-08-21T10:11:25;3.30;;;1.17;;
71777;SDS011;59609;52.430;4.668;2023-08-21T10:13:51;6.47;;;1.35;;
71777;SDS011;59609;52.430;4.668;2023-08-21T10:16:17;4.63;;;1.85;;
71777;SDS011;59609;52.430;4.668;2023-08-21T10:18:44;4.03;;;1.52;;
71777;SDS011;59609;52.430;4.668;2023-08-21T10:21:11;4.68;;;1.52;;
71777;SDS011;59609;52.430;4.668;2023-08-21T10:23:50;3.85;;;2.35;;
71777;SDS011;59609;52.430;4.668;2023-08-21T10:26:20;2.88;;;1.20;;
71777;SDS011;59609;52.430;4.668;2023-08-21T10:28:53;4.30;;;1.35;;
71777;SDS011;59609;52.430;4.668;2023-08-21T10:31:32;4.40;;;1.27;;
71777;SDS011;59609;52.430;4.668;2023-08-21T10:34:01;2.65;;;1.15;;
71777;SDS011;59609;52.430;4.668;2023-08-21T10:39:03;4.15;;;1.45;;
71777;SDS011;59609;52.430;4.668;2023-08-21T10:41:29;4.97;;;1.50;;
71777;SDS011;59609;52.430;4.668;2023-08-21T10:43:55;3.78;;;1.52;;
71777;SDS011;59609;52.430;4.668;2023-08-21T10:46:20;4.07;;;1.55;;
71777;SDS011;59609;52.430;4.668;2023-08-21T10:48:45;5.25;;;1.50;;
71777;SDS011;59609;52.430;4.668;2023-08-21T10:51:11;5.88;;;1.75;;
71777;SDS011;59609;52.430;4.668;2023-08-21T10:53:38;3.92;;;1.13;;
71777;SDS011;59609;52.430;4.668;2023-08-21T10:56:06;3.60;;;1.10;;
71777;SDS011;59609;52.430;4.668;2023-08-21T10:58:35;2.80;;;1.48;;
71777;SDS011;59609;52.430;4.668;2023-08-21T11:01:03;7.13;;;1.60;;
71777;SDS011;59609;52.430;4.668;2023-08-21T11:03:29;3.20;;;1.02;;
71777;SDS011;59609;52.430;4.668;2023-08-21T11:06:09;3.45;;;1.10;;
71777;SDS011;59609;52.430;4.668;2023-08-21T11:08:36;6.05;;;1.20;;
71777;SDS011;59609;52.430;4.668;2023-08-21T11:11:04;4.40;;;1.27;;
71777;SDS011;59609;52.430;4.668;2023-08-21T11:13:31;5.05;;;1.33;;
71777;SDS011;59609;52.430;4.668;2023-08-21T11:16:03;3.53;;;1.73;;
71777;SDS011;59609;52.430;4.668;2023-08-21T11:18:34;5.05;;;2.38;;
71777;SDS011;59609;52.430;4.668;2023-08-21T11:21:07;3.90;;;1.30;;
71777;SDS011;59609;52.430;4.668;2023-08-21T11:23:34;3.20;;;1.10;;
71777;SDS011;59609;52.430;4.668;2023-08-21T11:26:01;2.42;;;1.23;;
71777;SDS011;59609;52.430;4.668;2023-08-21T11:28:28;2.00;;;1.05;;
71777;SDS011;59609;52.430;4.668;2023-08-21T11:30:55;3.83;;;1.85;;
71777;SDS011;59609;52.430;4.668;2023-08-21T11:33:21;1.92;;;1.20;;
71777;SDS011;59609;52.430;4.668;2023-08-21T11:35:47;3.97;;;1.20;;
71777;SDS011;59609;52.430;4.668;2023-08-21T11:38:19;2.22;;;1.45;;
71777;SDS011;59609;52.430;4.668;2023-08-21T11:43:20;5.28;;;1.27;;
71777;SDS011;59609;52.430;4.668;2023-08-21T11:45:46;3.80;;;1.20;;
71777;SDS011;59609;52.430;4.668;2023-08-21T11:48:11;1.83;;;1.08;;
71777;SDS011;59609;52.430;4.668;2023-08-21T11:50:37;3.53;;;1.67;;
71777;SDS011;59609;52.430;4.668;2023-08-21T11:53:02;2.45;;;1.20;;
71777;SDS011;59609;52.430;4.668;2023-08-21T11:55:28;2.58;;;1.20;;
71777;SDS011;59609;52.430;4.668;2023-08-21T11:57:54;4.72;;;2.28;;
71777;SDS011;59609;52.430;4.668;2023-08-21T12:00:26;3.17;;;1.20;;
71777;SDS011;59609;52.430;4.668;2023-08-21T12:02:54;2.28;;;1.45;;
71777;SDS011;59609;52.430;4.668;2023-08-21T12:05:23;4.18;;;1.15;;
71777;SDS011;59609;52.430;4.668;2023-08-21T12:07:49;5.15;;;1.67;;
71777;SDS011;59609;52.430;4.668;2023-08-21T12:10:14;5.93;;;1.30;;
71777;SDS011;59609;52.430;4.668;2023-08-21T12:12:47;3.55;;;1.10;;
71777;SDS011;59609;52.430;4.668;2023-08-21T12:15:12;3.88;;;1.15;;
71777;SDS011;59609;52.430;4.668;2023-08-21T12:17:38;2.75;;;1.38;;
71777;SDS011;59609;52.430;4.668;2023-08-21T12:20:04;4.32;;;1.40;;
71777;SDS011;59609;52.430;4.668;2023-08-21T12:22:35;4.35;;;1.20;;
71777;SDS011;59609;52.430;4.668;2023-08-21T12:25:01;4.00;;;1.63;;
71777;SDS011;59609;52.430;4.668;2023-08-21T12:27:27;4.00;;;2.20;;
71777;SDS011;59609;52.430;4.668;2023-08-21T12:29:53;5.65;;;2.30;;
71777;SDS011;59609;52.430;4.668;2023-08-21T12:32:18;2.88;;;1.23;;
71777;SDS011;59609;52.430;4.668;2023-08-21T12:34:43;3.33;;;1.38;;
71777;SDS011;59609;52.430;4.668;2023-08-21T12:37:09;2.42;;;2.05;;
71777;SDS011;59609;52.430;4.668;2023-08-21T12:39:34;3.13;;;1.08;;
71777;SDS011;59609;52.430;4.668;2023-08-21T12:42:00;2.75;;;2.08;;
71777;SDS011;59609;52.430;4.668;2023-08-21T12:44:25;2.25;;;1.27;;
71777;SDS011;59609;52.430;4.668;2023-08-21T12:46:50;3.03;;;1.52;;
71777;SDS011;59609;52.430;4.668;2023-08-21T12:49:16;3.17;;;1.10;;
71777;SDS011;59609;52.430;4.668;2023-08-21T12:51:41;1.50;;;1.10;;
71777;SDS011;59609;52.430;4.668;2023-08-21T12:54:07;2.40;;;1.40;;
71777;SDS011;59609;52.430;4.668;2023-08-21T12:56:34;3.55;;;1.30;;
71777;SDS011;59609;52.430;4.668;2023-08-21T12:58:59;3.85;;;1.52;;
71777;SDS011;59609;52.430;4.668;2023-08-21T13:01:25;4.28;;;1.23;;
71777;SDS011;59609;52.430;4.668;2023-08-21T13:03:51;3.75;;;1.40;;
71777;SDS011;59609;52.430;4.668;2023-08-21T13:06:16;5.13;;;1.48;;
71777;SDS011;59609;52.430;4.668;2023-08-21T13:08:42;1.40;;;1.20;;
71777;SDS011;59609;52.430;4.668;2023-08-21T13:11:08;4.32;;;1.70;;
71777;SDS011;59609;52.430;4.668;2023-08-21T13:13:35;2.78;;;1.27;;
71777;SDS011;59609;52.430;4.668;2023-08-21T13:16:00;3.30;;;1.52;;
71777;SDS011;59609;52.430;4.668;2023-08-21T13:18:26;2.15;;;1.65;;
71777;SDS011;59609;52.430;4.668;2023-08-21T13:20:52;2.58;;;1.27;;
71777;SDS011;59609;52.430;4.668;2023-08-21T13:23:17;3.10;;;1.40;;
71777;SDS011;59609;52.430;4.668;2023-08-21T13:25:43;3.42;;;1.42;;
71777;SDS011;59609;52.430;4.668;2023-08-21T13:28:09;2.92;;;1.50;;
71777;SDS011;59609;52.430;4.668;2023-08-21T13:30:35;3.13;;;1.60;;
71777;SDS011;59609;52.430;4.668;2023-08-21T13:33:01;2.45;;;1.50;;
71777;SDS011;59609;52.430;4.668;2023-08-21T13:35:26;4.05;;;1.70;;
71777;SDS011;59609;52.430;4.668;2023-08-21T13:37:51;6.30;;;1.50;;
71777;SDS011;59609;52.430;4.668;2023-08-21T13:40:17;2.20;;;1.38;;
71777;SDS011;59609;52.430;4.668;2023-08-21T13:42:43;6.57;;;1.42;;
71777;SDS011;59609;52.430;4.668;2023-08-21T13:45:14;2.17;;;1.40;;
71777;SDS011;59609;52.430;4.668;2023-08-21T13:47:44;6.25;;;1.45;;
71777;SDS011;59609;52.430;4.668;2023-08-21T13:50:13;2.45;;;1.30;;
71777;SDS011;59609;52.430;4.668;2023-08-21T13:52:41;1.95;;;1.55;;
71777;SDS011;59609;52.430;4.668;2023-08-21T13:55:08;2.42;;;1.50;;
71777;SDS011;59609;52.430;4.668;2023-08-21T13:57:34;2.28;;;1.75;;
71777;SDS011;59609;52.430;4.668;2023-08-21T14:00:01;4.50;;;1.70;;
71777;SDS011;59609;52.430;4.668;2023-08-21T14:02:31;3.78;;;1.50;;
71777;SDS011;59609;52.430;4.668;2023-08-21T14:04:56;2.08;;;1.60;;
71777;SDS011;59609;52.430;4.668;2023-08-21T14:07:22;4.78;;;1.70;;
71777;SDS011;59609;52.430;4.668;2023-08-21T14:09:47;6.53;;;1.50;;
71777;SDS011;59609;52.430;4.668;2023-08-21T14:12:12;4.68;;;2.65;;
71777;SDS011;59609;52.430;4.668;2023-08-21T14:14:38;3.22;;;1.45;;
71777;SDS011;59609;52.430;4.668;2023-08-21T14:17:03;2.65;;;1.40;;
71777;SDS011;59609;52.430;4.668;2023-08-21T14:19:29;3.70;;;2.38;;
71777;SDS011;59609;52.430;4.668;2023-08-21T14:21:58;5.22;;;1.48;;
71777;SDS011;59609;52.430;4.668;2023-08-21T14:24:24;2.35;;;1.15;;
71777;SDS011;59609;52.430;4.668;2023-08-21T14:26:51;6.25;;;1.45;;
71777;SDS011;59609;52.430;4.668;2023-08-21T14:29:17;3.55;;;2.63;;
71777;SDS011;59609;52.430;4.668;2023-08-21T14:31:42;2.65;;;1.52;;
71777;SDS011;59609;52.430;4.668;2023-08-21T14:34:07;4.15;;;2.15;;
71777;SDS011;59609;52.430;4.668;2023-08-21T14:36:33;4.47;;;1.40;;
71777;SDS011;59609;52.430;4.668;2023-08-21T14:38:58;3.28;;;1.20;;
71777;SDS011;59609;52.430;4.668;2023-08-21T14:41:24;2.65;;;1.52;;
71777;SDS011;59609;52.430;4.668;2023-08-21T14:43:50;4.45;;;1.63;;
71777;SDS011;59609;52.430;4.668;2023-08-21T14:46:15;1.92;;;1.20;;
71777;SDS011;59609;52.430;4.668;2023-08-21T14:48:40;3.30;;;1.60;;
71777;SDS011;59609;52.430;4.668;2023-08-21T14:51:06;2.28;;;1.20;;
71777;SDS011;59609;52.430;4.668;2023-08-21T14:53:32;4.60;;;1.50;;